sensor_id;sensor_type;location;lat;lon;timestamp;temperature;humidity
9668;DHT22;4872;48.316;10.650;2022-09-03T04:11:16;14.40;95.70
9668;DHT22;4872;48.316;10.650;2022-09-03T04:13:45;14.40;96.20
9668;DHT22;4872;48.316;10.650;2022-09-03T04:16:13;14.40;96.10
9668;DHT22;4872;48.316;10.650;2022-09-03T04:18:42;14.40;95.90
9668;DHT22;4872;48.316;10.650;2022-09-03T04:21:10;14.40;96.00
9668;DHT22;4872;48.316;10.650;2022-09-03T04:23:39;14.40;96.20
9668;DHT22;4872;48.316;10.650;2022-09-03T04:26:07;14.40;96.20
9668;DHT22;4872;48.316;10.650;2022-09-03T04:28:35;14.50;96.20
9668;DHT22;4872;48.316;10.650;2022-09-03T04:31:07;14.50;96.40
9668;DHT22;4872;48.316;10.650;2022-09-03T04:33:35;14.50;96.70
9668;DHT22;4872;48.316;10.650;2022-09-03T04:36:07;14.50;96.80
9668;DHT22;4872;48.316;10.650;2022-09-03T04:38:35;14.60;96.70
9668;DHT22;4872;48.316;10.650;2022-09-03T04:41:03;14.60;96.60
9668;DHT22;4872;48.316;10.650;2022-09-03T04:43:30;14.60;96.90
9668;DHT22;4872;48.316;10.650;2022-09-03T04:45:59;14.60;96.60
9668;DHT22;4872;48.316;10.650;2022-09-03T04:48:27;14.60;96.80
9668;DHT22;4872;48.316;10.650;2022-09-03T04:50:54;14.50;96.70
9668;DHT22;4872;48.316;10.650;2022-09-03T04:53:27;14.50;96.60
9668;DHT22;4872;48.316;10.650;2022-09-03T04:55:54;14.60;96.50
9668;DHT22;4872;48.316;10.650;2022-09-03T04:58:21;14.50;96.20
9668;DHT22;4872;48.316;10.650;2022-09-03T05:00:47;14.40;96.30
9668;DHT22;4872;48.316;10.650;2022-09-03T05:03:16;14.50;96.40
9668;DHT22;4872;48.316;10.650;2022-09-03T05:05:50;14.50;96.30
9668;DHT22;4872;48.316;10.650;2022-09-03T05:08:16;14.50;96.70
9668;DHT22;4872;48.316;10.650;2022-09-03T05:10:43;14.60;96.50
9668;DHT22;4872;48.316;10.650;2022-09-03T05:13:10;14.60;96.60
9668;DHT22;4872;48.316;10.650;2022-09-03T05:15:36;14.70;96.90
9668;DHT22;4872;48.316;10.650;2022-09-03T05:18:03;14.70;96.70
9668;DHT22;4872;48.316;10.650;2022-09-03T05:20:31;14.70;96.80
9668;DHT22;4872;48.316;10.650;2022-09-03T05:23:00;14.90;96.90
9668;DHT22;4872;48.316;10.650;2022-09-03T05:25:27;14.80;96.60
9668;DHT22;4872;48.316;10.650;2022-09-03T05:27:56;14.80;96.40
9668;DHT22;4872;48.316;10.650;2022-09-03T05:30:23;14.80;97.20
9668;DHT22;4872;48.316;10.650;2022-09-03T05:32:50;14.80;97.90
9668;DHT22;4872;48.316;10.650;2022-09-03T05:35:17;14.80;98.60
9668;DHT22;4872;48.316;10.650;2022-09-03T05:37:45;14.80;99.50
9668;DHT22;4872;48.316;10.650;2022-09-03T05:40:12;14.80;99.60
9668;DHT22;4872;48.316;10.650;2022-09-03T05:42:39;14.80;99.90
9668;DHT22;4872;48.316;10.650;2022-09-03T05:45:08;14.70;99.90
9668;DHT22;4872;48.316;10.650;2022-09-03T05:47:36;14.70;99.90
9668;DHT22;4872;48.316;10.650;2022-09-03T05:50:05;14.70;99.90
9668;DHT22;4872;48.316;10.650;2022-09-03T05:52:33;14.60;99.90
9668;DHT22;4872;48.316;10.650;2022-09-03T05:55:01;14.60;99.90
9668;DHT22;4872;48.316;10.650;2022-09-03T05:57:28;14.60;99.90
9668;DHT22;4872;48.316;10.650;2022-09-03T05:59:55;14.60;99.90
9668;DHT22;4872;48.316;10.650;2022-09-03T06:02:22;14.70;99.90
9668;DHT22;4872;48.316;10.650;2022-09-03T06:04:48;14.60;99.90
9668;DHT22;4872;48.316;10.650;2022-09-03T06:07:15;14.50;99.90
9668;DHT22;4872;48.316;10.650;2022-09-03T06:09:42;14.50;99.90
9668;DHT22;4872;48.316;10.650;2022-09-03T06:12:10;14.60;99.90
9668;DHT22;4872;48.316;10.650;2022-09-03T06:14:37;14.50;99.90
9668;DHT22;4872;48.316;10.650;2022-09-03T06:17:03;14.60;99.90
9668;DHT22;4872;48.316;10.650;2022-09-03T06:19:30;14.50;99.90
9668;DHT22;4872;48.316;10.650;2022-09-03T06:21:57;14.50;99.90
9668;DHT22;4872;48.316;10.650;2022-09-03T06:24:24;14.50;99.90
9668;DHT22;4872;48.316;10.650;2022-09-03T06:26:51;14.50;99.90
9668;DHT22;4872;48.316;10.650;2022-09-03T06:29:20;14.50;99.90
9668;DHT22;4872;48.316;10.650;2022-09-03T06:31:46;14.50;99.90
9668;DHT22;4872;48.316;10.650;2022-09-03T06:34:15;14.60;99.90
9668;DHT22;4872;48.316;10.650;2022-09-03T06:36:43;14.60;99.90
9668;DHT22;4872;48.316;10.650;2022-09-03T06:39:10;14.60;99.90
9668;DHT22;4872;48.316;10.650;2022-09-03T06:41:37;14.60;99.90
9668;DHT22;4872;48.316;10.650;2022-09-03T06:44:06;14.70;99.90
9668;DHT22;4872;48.316;10.650;2022-09-03T06:46:38;14.70;99.90
9668;DHT22;4872;48.316;10.650;2022-09-03T06:49:07;14.70;99.90
9668;DHT22;4872;48.316;10.650;2022-09-03T06:51:34;14.70;99.90
9668;DHT22;4872;48.316;10.650;2022-09-03T06:54:03;14.70;99.90
9668;DHT22;4872;48.316;10.650;2022-09-03T06:56:32;14.70;99.90
9668;DHT22;4872;48.316;10.650;2022-09-03T06:59:02;14.80;99.90
9668;DHT22;4872;48.316;10.650;2022-09-03T07:01:31;14.90;99.90
9668;DHT22;4872;48.316;10.650;2022-09-03T07:04:00;14.90;99.90
9668;DHT22;4872;48.316;10.650;2022-09-03T07:06:29;15.00;99.90
9668;DHT22;4872;48.316;10.650;2022-09-03T07:08:55;15.00;99.90
9668;DHT22;4872;48.316;10.650;2022-09-03T07:11:26;15.10;99.90
9668;DHT22;4872;48.316;10.650;2022-09-03T07:13:54;15.10;99.90
9668;DHT22;4872;48.316;10.650;2022-09-03T07:16:22;15.10;99.90
9668;DHT22;4872;48.316;10.650;2022-09-03T07:18:49;15.10;99.90
9668;DHT22;4872;48.316;10.650;2022-09-03T07:21:19;15.20;99.90
9668;DHT22;4872;48.316;10.650;2022-09-03T07:23:47;15.20;99.90
9668;DHT22;4872;48.316;10.650;2022-09-03T07:26:17;15.30;99.90
9668;DHT22;4872;48.316;10.650;2022-09-03T07:28:45;15.40;99.90
9668;DHT22;4872;48.316;10.650;2022-09-03T07:31:15;15.50;99.90
9668;DHT22;4872;48.316;10.650;2022-09-03T07:33:44;15.60;99.90
9668;DHT22;4872;48.316;10.650;2022-09-03T07:36:13;15.70;99.90
9668;DHT22;4872;48.316;10.650;2022-09-03T07:38:42;15.80;99.90
9668;DHT22;4872;48.316;10.650;2022-09-03T07:41:11;15.90;99.90
9668;DHT22;4872;48.316;10.650;2022-09-03T07:43:40;16.00;99.90
9668;DHT22;4872;48.316;10.650;2022-09-03T07:46:08;16.10;99.90
9668;DHT22;4872;48.316;10.650;2022-09-03T07:48:37;16.30;99.90
9668;DHT22;4872;48.316;10.650;2022-09-03T07:51:04;16.30;99.90
9668;DHT22;4872;48.316;10.650;2022-09-03T07:53:31;16.40;99.90
9668;DHT22;4872;48.316;10.650;2022-09-03T07:56:02;16.50;99.90
9668;DHT22;4872;48.316;10.650;2022-09-03T07:58:30;16.70;99.90
9668;DHT22;4872;48.316;10.650;2022-09-03T08:00:57;16.80;99.90
9668;DHT22;4872;48.316;10.650;2022-09-03T08:03:24;16.80;99.90
9668;DHT22;4872;48.316;10.650;2022-09-03T08:05:51;17.00;99.90
9668;DHT22;4872;48.316;10.650;2022-09-03T08:08:18;17.00;99.90
9668;DHT22;4872;48.316;10.650;2022-09-03T08:10:45;17.10;99.90
9668;DHT22;4872;48.316;10.650;2022-09-03T08:13:13;17.20;99.90
9668;DHT22;4872;48.316;10.650;2022-09-03T08:15:40;17.20;99.90
9668;DHT22;4872;48.316;10.650;2022-09-03T08:18:07;17.20;99.90
9668;DHT22;4872;48.316;10.650;2022-09-03T08:20:36;17.30;99.90
9668;DHT22;4872;48.316;10.650;2022-09-03T08:23:03;17.30;99.90
9668;DHT22;4872;48.316;10.650;2022-09-03T08:25:30;17.40;99.90
9668;DHT22;4872;48.316;10.650;2022-09-03T08:27:58;17.40;99.90
9668;DHT22;4872;48.316;10.650;2022-09-03T08:30:26;17.60;99.90
9668;DHT22;4872;48.316;10.650;2022-09-03T08:32:53;17.60;99.90
9668;DHT22;4872;48.316;10.650;2022-09-03T08:35:21;17.60;99.90
9668;DHT22;4872;48.316;10.650;2022-09-03T08:37:47;17.70;99.90
9668;DHT22;4872;48.316;10.650;2022-09-03T08:40:16;17.80;99.90
9668;DHT22;4872;48.316;10.650;2022-09-03T08:42:54;17.90;99.90
9668;DHT22;4872;48.316;10.650;2022-09-03T08:45:22;18.00;99.90
9668;DHT22;4872;48.316;10.650;2022-09-03T08:47:57;18.20;99.90
9668;DHT22;4872;48.316;10.650;2022-09-03T08:50:30;18.30;99.90
9668;DHT22;4872;48.316;10.650;2022-09-03T08:53:01;18.40;99.90
9668;DHT22;4872;48.316;10.650;2022-09-03T08:55:32;18.50;99.90
9668;DHT22;4872;48.316;10.650;2022-09-03T08:58:03;18.60;99.90
9668;DHT22;4872;48.316;10.650;2022-09-03T09:00:39;18.70;99.90
9668;DHT22;4872;48.316;10.650;2022-09-03T09:06:07;18.90;99.90
9668;DHT22;4872;48.316;10.650;2022-09-03T09:08:44;19.00;99.90
9668;DHT22;4872;48.316;10.650;2022-09-03T09:11:20;19.10;99.90
9668;DHT22;4872;48.316;10.650;2022-09-03T09:13:57;19.20;99.90
9668;DHT22;4872;48.316;10.650;2022-09-03T09:16:34;19.40;99.90
9668;DHT22;4872;48.316;10.650;2022-09-03T09:19:12;19.20;99.90
9668;DHT22;4872;48.316;10.650;2022-09-03T09:21:46;19.20;99.90
9668;DHT22;4872;48.316;10.650;2022-09-03T09:24:18;19.20;99.90
9668;DHT22;4872;48.316;10.650;2022-09-03T09:26:48;19.10;99.90
9668;DHT22;4872;48.316;10.650;2022-09-03T09:29:15;19.00;99.90
9668;DHT22;4872;48.316;10.650;2022-09-03T09:31:42;19.00;99.90
9668;DHT22;4872;48.316;10.650;2022-09-03T09:34:11;19.00;99.90
9668;DHT22;4872;48.316;10.650;2022-09-03T09:36:44;19.10;99.90
9668;DHT22;4872;48.316;10.650;2022-09-03T09:39:13;19.00;99.90
9668;DHT22;4872;48.316;10.650;2022-09-03T09:41:41;19.00;99.90
9668;DHT22;4872;48.316;10.650;2022-09-03T09:44:18;19.00;99.90
9668;DHT22;4872;48.316;10.650;2022-09-03T09:46:45;19.00;99.90
9668;DHT22;4872;48.316;10.650;2022-09-03T09:49:29;19.00;99.90
9668;DHT22;4872;48.316;10.650;2022-09-03T09:52:01;18.90;99.90
9668;DHT22;4872;48.316;10.650;2022-09-03T09:54:28;19.00;99.90
9668;DHT22;4872;48.316;10.650;2022-09-03T09:56:58;18.90;99.90
9668;DHT22;4872;48.316;10.650;2022-09-03T09:59:26;18.90;99.90
9668;DHT22;4872;48.316;10.650;2022-09-03T10:02:03;18.90;99.90
9668;DHT22;4872;48.316;10.650;2022-09-03T10:04:34;18.90;99.90
9668;DHT22;4872;48.316;10.650;2022-09-03T10:07:04;18.90;99.90
9668;DHT22;4872;48.316;10.650;2022-09-03T10:09:33;18.90;99.90
9668;DHT22;4872;48.316;10.650;2022-09-03T10:12:08;19.00;99.90
9668;DHT22;4872;48.316;10.650;2022-09-03T10:14:43;19.00;99.90
9668;DHT22;4872;48.316;10.650;2022-09-03T10:17:18;19.00;99.90
9668;DHT22;4872;48.316;10.650;2022-09-03T10:19:54;19.10;99.90
9668;DHT22;4872;48.316;10.650;2022-09-03T10:22:40;19.20;99.90
9668;DHT22;4872;48.316;10.650;2022-09-03T10:25:12;19.30;99.90
9668;DHT22;4872;48.316;10.650;2022-09-03T10:27:40;19.40;99.90
9668;DHT22;4872;48.316;10.650;2022-09-03T10:30:11;19.40;99.90
9668;DHT22;4872;48.316;10.650;2022-09-03T10:32:45;19.50;99.90
9668;DHT22;4872;48.316;10.650;2022-09-03T10:35:20;19.50;99.90
9668;DHT22;4872;48.316;10.650;2022-09-03T10:37:53;19.70;99.90
9668;DHT22;4872;48.316;10.650;2022-09-03T10:40:26;19.70;99.90
9668;DHT22;4872;48.316;10.650;2022-09-03T10:43:10;19.80;99.90
9668;DHT22;4872;48.316;10.650;2022-09-03T10:45:46;19.90;99.90
9668;DHT22;4872;48.316;10.650;2022-09-03T10:51:17;20.10;99.90
9668;DHT22;4872;48.316;10.650;2022-09-03T10:53:55;20.40;99.90
9668;DHT22;4872;48.316;10.650;2022-09-03T10:56:31;20.40;99.90
9668;DHT22;4872;48.316;10.650;2022-09-03T10:59:06;20.50;99.90
9668;DHT22;4872;48.316;10.650;2022-09-03T11:01:42;20.60;99.90
9668;DHT22;4872;48.316;10.650;2022-09-03T11:04:21;20.70;99.90
9668;DHT22;4872;48.316;10.650;2022-09-03T11:06:54;20.80;99.90
9668;DHT22;4872;48.316;10.650;2022-09-03T11:09:25;21.00;99.90
9668;DHT22;4872;48.316;10.650;2022-09-03T11:11:58;21.00;99.90
9668;DHT22;4872;48.316;10.650;2022-09-03T11:14:33;20.90;99.90
9668;DHT22;4872;48.316;10.650;2022-09-03T11:17:06;21.10;99.90
9668;DHT22;4872;48.316;10.650;2022-09-03T11:19:40;21.10;99.90
9668;DHT22;4872;48.316;10.650;2022-09-03T11:22:12;21.20;99.90
9668;DHT22;4872;48.316;10.650;2022-09-03T11:24:42;21.00;99.90
9668;DHT22;4872;48.316;10.650;2022-09-03T11:27:19;21.20;99.90
9668;DHT22;4872;48.316;10.650;2022-09-03T11:29:52;21.20;99.90
9668;DHT22;4872;48.316;10.650;2022-09-03T11:32:23;21.30;99.90
9668;DHT22;4872;48.316;10.650;2022-09-03T11:34:52;21.20;99.90
9668;DHT22;4872;48.316;10.650;2022-09-03T11:37:22;21.20;99.80
9668;DHT22;4872;48.316;10.650;2022-09-03T11:39:56;21.20;99.90
9668;DHT22;4872;48.316;10.650;2022-09-03T11:42:27;21.20;99.90
9668;DHT22;4872;48.316;10.650;2022-09-03T11:45:10;21.30;99.80
9668;DHT22;4872;48.316;10.650;2022-09-03T11:47:39;21.30;99.90
9668;DHT22;4872;48.316;10.650;2022-09-03T11:50:18;21.40;99.60
9668;DHT22;4872;48.316;10.650;2022-09-03T11:52:47;21.60;99.90
9668;DHT22;4872;48.316;10.650;2022-09-03T11:55:27;21.40;98.50
9668;DHT22;4872;48.316;10.650;2022-09-03T11:57:56;21.40;99.20
9668;DHT22;4872;48.316;10.650;2022-09-03T12:00:23;21.50;99.00
9668;DHT22;4872;48.316;10.650;2022-09-03T12:02:54;21.60;98.60
9668;DHT22;4872;48.316;10.650;2022-09-03T12:05:29;21.70;99.10
9668;DHT22;4872;48.316;10.650;2022-09-03T12:11:01;22.00;98.80
9668;DHT22;4872;48.316;10.650;2022-09-03T12:13:47;22.10;98.90
9668;DHT22;4872;48.316;10.650;2022-09-03T12:16:48;22.30;98.70
9668;DHT22;4872;48.316;10.650;2022-09-03T12:19:21;22.60;99.40
9668;DHT22;4872;48.316;10.650;2022-09-03T12:21:51;22.90;97.80
9668;DHT22;4872;48.316;10.650;2022-09-03T12:24:19;23.10;97.60
9668;DHT22;4872;48.316;10.650;2022-09-03T12:26:48;23.30;96.10
9668;DHT22;4872;48.316;10.650;2022-09-03T12:29:23;23.20;95.10
9668;DHT22;4872;48.316;10.650;2022-09-03T12:31:50;23.20;94.70
9668;DHT22;4872;48.316;10.650;2022-09-03T12:34:19;23.10;94.30
9668;DHT22;4872;48.316;10.650;2022-09-03T12:36:48;23.00;94.90
9668;DHT22;4872;48.316;10.650;2022-09-03T12:39:19;23.00;94.80
9668;DHT22;4872;48.316;10.650;2022-09-03T12:41:59;22.70;94.90
9668;DHT22;4872;48.316;10.650;2022-09-03T12:44:29;22.50;95.30
9668;DHT22;4872;48.316;10.650;2022-09-03T12:47:01;22.40;95.20
9668;DHT22;4872;48.316;10.650;2022-09-03T12:49:34;22.30;95.60
9668;DHT22;4872;48.316;10.650;2022-09-03T12:52:04;22.20;95.50
9668;DHT22;4872;48.316;10.650;2022-09-03T12:54:38;21.90;96.00
9668;DHT22;4872;48.316;10.650;2022-09-03T12:57:08;21.70;96.50
9668;DHT22;4872;48.316;10.650;2022-09-03T12:59:36;21.60;96.80
9668;DHT22;4872;48.316;10.650;2022-09-03T13:02:09;21.50;97.40
9668;DHT22;4872;48.316;10.650;2022-09-03T13:04:39;21.40;98.50
9668;DHT22;4872;48.316;10.650;2022-09-03T13:07:11;20.90;99.30
9668;DHT22;4872;48.316;10.650;2022-09-03T13:09:41;20.30;99.90
9668;DHT22;4872;48.316;10.650;2022-09-03T13:12:20;19.80;99.90
9668;DHT22;4872;48.316;10.650;2022-09-03T13:14:47;19.20;99.90
9668;DHT22;4872;48.316;10.650;2022-09-03T13:17:44;18.80;99.90
9668;DHT22;4872;48.316;10.650;2022-09-03T13:20:26;18.60;99.90
9668;DHT22;4872;48.316;10.650;2022-09-03T13:23:13;18.50;99.90
9668;DHT22;4872;48.316;10.650;2022-09-03T13:25:52;18.50;99.90
9668;DHT22;4872;48.316;10.650;2022-09-03T13:28:30;18.50;99.90
9668;DHT22;4872;48.316;10.650;2022-09-03T13:31:04;18.60;99.90
9668;DHT22;4872;48.316;10.650;2022-09-03T13:33:37;18.70;99.90
9668;DHT22;4872;48.316;10.650;2022-09-03T13:36:12;18.70;99.90
9668;DHT22;4872;48.316;10.650;2022-09-03T13:38:45;18.70;99.90
9668;DHT22;4872;48.316;10.650;2022-09-03T13:41:19;18.80;99.90
9668;DHT22;4872;48.316;10.650;2022-09-03T13:43:53;18.70;99.90
9668;DHT22;4872;48.316;10.650;2022-09-03T13:46:27;18.70;99.90
9668;DHT22;4872;48.316;10.650;2022-09-03T13:49:01;18.70;99.90
9668;DHT22;4872;48.316;10.650;2022-09-03T13:51:52;18.80;99.90
9668;DHT22;4872;48.316;10.650;2022-09-03T13:54:25;18.80;99.90
9668;DHT22;4872;48.316;10.650;2022-09-03T13:57:00;18.80;99.90
9668;DHT22;4872;48.316;10.650;2022-09-03T13:59:32;18.80;99.90
9668;DHT22;4872;48.316;10.650;2022-09-03T14:02:10;18.70;99.90
9668;DHT22;4872;48.316;10.650;2022-09-03T14:04:48;18.90;99.90
9668;DHT22;4872;48.316;10.650;2022-09-03T14:07:20;19.00;99.90
9668;DHT22;4872;48.316;10.650;2022-09-03T14:09:57;19.20;99.90
9668;DHT22;4872;48.316;10.650;2022-09-03T14:12:36;19.10;99.90
9668;DHT22;4872;48.316;10.650;2022-09-03T14:15:14;19.20;99.90
9668;DHT22;4872;48.316;10.650;2022-09-03T14:17:47;19.30;99.90
9668;DHT22;4872;48.316;10.650;2022-09-03T14:20:21;19.40;99.90
9668;DHT22;4872;48.316;10.650;2022-09-03T14:22:52;19.40;99.90
9668;DHT22;4872;48.316;10.650;2022-09-03T14:25:21;19.50;99.90
9668;DHT22;4872;48.316;10.650;2022-09-03T14:27:50;19.60;99.90
9668;DHT22;4872;48.316;10.650;2022-09-03T14:30:24;19.60;99.90
9668;DHT22;4872;48.316;10.650;2022-09-03T14:32:57;19.60;99.90
9668;DHT22;4872;48.316;10.650;2022-09-03T14:35:34;19.90;99.90
9668;DHT22;4872;48.316;10.650;2022-09-03T14:41:03;20.70;99.90
9668;DHT22;4872;48.316;10.650;2022-09-03T14:43:51;21.20;99.90
9668;DHT22;4872;48.316;10.650;2022-09-03T14:46:34;21.80;99.90
9668;DHT22;4872;48.316;10.650;2022-09-03T14:49:25;21.90;99.90
9668;DHT22;4872;48.316;10.650;2022-09-03T14:52:10;21.70;99.90
9668;DHT22;4872;48.316;10.650;2022-09-03T14:54:57;21.40;99.90
9668;DHT22;4872;48.316;10.650;2022-09-03T15:00:30;20.70;99.90
9668;DHT22;4872;48.316;10.650;2022-09-03T15:03:12;20.50;99.90
9668;DHT22;4872;48.316;10.650;2022-09-03T15:06:00;20.30;99.90
9668;DHT22;4872;48.316;10.650;2022-09-03T15:08:38;20.00;99.90
9668;DHT22;4872;48.316;10.650;2022-09-03T15:11:14;19.80;99.90
9668;DHT22;4872;48.316;10.650;2022-09-03T15:13:46;19.50;99.90
9668;DHT22;4872;48.316;10.650;2022-09-03T15:16:27;19.40;99.90
9668;DHT22;4872;48.316;10.650;2022-09-03T15:19:08;19.20;99.90
9668;DHT22;4872;48.316;10.650;2022-09-03T15:21:51;19.20;99.90
9668;DHT22;4872;48.316;10.650;2022-09-03T15:24:30;19.10;99.90
9668;DHT22;4872;48.316;10.650;2022-09-03T15:27:14;19.10;99.90
9668;DHT22;4872;48.316;10.650;2022-09-03T15:29:51;19.10;99.90
9668;DHT22;4872;48.316;10.650;2022-09-03T15:32:45;19.10;99.90
9668;DHT22;4872;48.316;10.650;2022-09-03T15:35:29;19.50;99.90
9668;DHT22;4872;48.316;10.650;2022-09-03T15:38:00;20.20;99.90
9668;DHT22;4872;48.316;10.650;2022-09-03T15:40:31;20.80;99.90
9668;DHT22;4872;48.316;10.650;2022-09-03T15:43:04;21.60;99.90
9668;DHT22;4872;48.316;10.650;2022-09-03T15:45:38;22.30;99.90
9668;DHT22;4872;48.316;10.650;2022-09-03T15:48:16;22.90;99.90
9668;DHT22;4872;48.316;10.650;2022-09-03T15:50:52;23.30;99.90
9668;DHT22;4872;48.316;10.650;2022-09-03T15:53:29;23.70;99.90
9668;DHT22;4872;48.316;10.650;2022-09-03T15:56:06;24.00;99.90
9668;DHT22;4872;48.316;10.650;2022-09-03T15:58:38;24.20;99.90
9668;DHT22;4872;48.316;10.650;2022-09-03T16:01:18;24.40;99.90
9668;DHT22;4872;48.316;10.650;2022-09-03T16:03:55;24.30;99.90
9668;DHT22;4872;48.316;10.650;2022-09-03T16:06:31;24.40;99.90
9668;DHT22;4872;48.316;10.650;2022-09-03T16:09:06;24.40;99.90
9668;DHT22;4872;48.316;10.650;2022-09-03T16:11:38;24.40;99.90
9668;DHT22;4872;48.316;10.650;2022-09-03T16:14:09;24.30;99.90
9668;DHT22;4872;48.316;10.650;2022-09-03T16:16:50;24.20;99.90
9668;DHT22;4872;48.316;10.650;2022-09-03T16:19:25;23.90;99.90
9668;DHT22;4872;48.316;10.650;2022-09-03T16:21:58;23.80;99.60
9668;DHT22;4872;48.316;10.650;2022-09-03T16:24:30;23.50;99.60
9668;DHT22;4872;48.316;10.650;2022-09-03T16:27:02;23.30;99.80
9668;DHT22;4872;48.316;10.650;2022-09-03T16:29:31;23.00;99.90
9668;DHT22;4872;48.316;10.650;2022-09-03T16:32:16;22.70;99.90
9668;DHT22;4872;48.316;10.650;2022-09-03T16:34:57;22.30;99.90
9668;DHT22;4872;48.316;10.650;2022-09-03T16:37:31;22.10;99.90
9668;DHT22;4872;48.316;10.650;2022-09-03T16:40:11;21.80;99.90
9668;DHT22;4872;48.316;10.650;2022-09-03T16:42:42;21.60;99.90
9668;DHT22;4872;48.316;10.650;2022-09-03T16:45:17;21.30;99.90
9668;DHT22;4872;48.316;10.650;2022-09-03T16:47:54;21.20;99.90
9668;DHT22;4872;48.316;10.650;2022-09-03T16:50:32;20.70;99.90
9668;DHT22;4872;48.316;10.650;2022-09-03T16:53:11;20.50;99.90
9668;DHT22;4872;48.316;10.650;2022-09-03T16:56:06;20.20;99.90
9668;DHT22;4872;48.316;10.650;2022-09-03T16:58:44;20.20;99.90
9668;DHT22;4872;48.316;10.650;2022-09-03T17:01:21;20.10;99.90
9668;DHT22;4872;48.316;10.650;2022-09-03T17:07:25;19.90;99.90
9668;DHT22;4872;48.316;10.650;2022-09-03T17:10:02;19.80;99.90
9668;DHT22;4872;48.316;10.650;2022-09-03T17:12:38;19.70;99.90
9668;DHT22;4872;48.316;10.650;2022-09-03T17:15:15;19.70;99.90
9668;DHT22;4872;48.316;10.650;2022-09-03T17:18:12;19.60;99.90
9668;DHT22;4872;48.316;10.650;2022-09-03T17:20:50;19.50;99.90
9668;DHT22;4872;48.316;10.650;2022-09-03T17:23:38;19.40;99.90
9668;DHT22;4872;48.316;10.650;2022-09-03T17:26:10;19.40;99.90
9668;DHT22;4872;48.316;10.650;2022-09-03T17:28:53;19.40;99.90
9668;DHT22;4872;48.316;10.650;2022-09-03T17:31:29;19.30;99.90
9668;DHT22;4872;48.316;10.650;2022-09-03T17:34:08;19.20;99.90
9668;DHT22;4872;48.316;10.650;2022-09-03T17:36:53;19.10;99.90
9668;DHT22;4872;48.316;10.650;2022-09-03T17:39:37;19.10;99.90
9668;DHT22;4872;48.316;10.650;2022-09-03T17:42:15;19.00;99.90
9668;DHT22;4872;48.316;10.650;2022-09-03T17:44:49;18.90;99.90
9668;DHT22;4872;48.316;10.650;2022-09-03T17:47:41;18.80;99.90
9668;DHT22;4872;48.316;10.650;2022-09-03T17:50:17;18.70;99.90
9668;DHT22;4872;48.316;10.650;2022-09-03T17:52:48;18.60;99.90
9668;DHT22;4872;48.316;10.650;2022-09-03T17:55:29;18.50;99.90
9668;DHT22;4872;48.316;10.650;2022-09-03T17:58:02;18.40;99.90
9668;DHT22;4872;48.316;10.650;2022-09-03T18:00:39;18.40;99.90
9668;DHT22;4872;48.316;10.650;2022-09-03T18:03:15;18.40;99.90
9668;DHT22;4872;48.316;10.650;2022-09-03T18:05:46;18.30;99.90
9668;DHT22;4872;48.316;10.650;2022-09-03T18:08:18;18.20;99.90
9668;DHT22;4872;48.316;10.650;2022-09-03T18:10:59;18.20;99.90
9668;DHT22;4872;48.316;10.650;2022-09-03T18:13:39;18.10;99.90
9668;DHT22;4872;48.316;10.650;2022-09-03T18:16:13;18.10;99.90
9668;DHT22;4872;48.316;10.650;2022-09-03T18:18:44;18.00;99.90
9668;DHT22;4872;48.316;10.650;2022-09-03T18:21:16;18.00;99.90
9668;DHT22;4872;48.316;10.650;2022-09-03T18:24:10;17.90;99.90
9668;DHT22;4872;48.316;10.650;2022-09-03T18:27:05;17.90;99.90
9668;DHT22;4872;48.316;10.650;2022-09-03T18:29:56;17.80;99.90
9668;DHT22;4872;48.316;10.650;2022-09-03T18:32:42;17.70;99.90
9668;DHT22;4872;48.316;10.650;2022-09-03T18:35:29;17.70;99.90
9668;DHT22;4872;48.316;10.650;2022-09-03T18:38:14;17.70;99.90
9668;DHT22;4872;48.316;10.650;2022-09-03T18:41:06;17.60;99.90
9668;DHT22;4872;48.316;10.650;2022-09-03T18:43:59;17.50;99.90
9668;DHT22;4872;48.316;10.650;2022-09-03T18:46:50;17.50;99.90
9668;DHT22;4872;48.316;10.650;2022-09-03T18:49:43;17.40;99.90
9668;DHT22;4872;48.316;10.650;2022-09-03T18:52:33;17.40;99.90
9668;DHT22;4872;48.316;10.650;2022-09-03T18:55:31;17.30;99.90
9668;DHT22;4872;48.316;10.650;2022-09-03T18:58:24;17.30;99.90
9668;DHT22;4872;48.316;10.650;2022-09-03T19:01:24;17.30;99.90
9668;DHT22;4872;48.316;10.650;2022-09-03T19:04:18;17.20;99.90
9668;DHT22;4872;48.316;10.650;2022-09-03T19:07:07;17.20;99.90
9668;DHT22;4872;48.316;10.650;2022-09-03T19:09:55;17.20;99.90
9668;DHT22;4872;48.316;10.650;2022-09-03T19:12:51;17.10;99.90
9668;DHT22;4872;48.316;10.650;2022-09-03T19:15:44;17.10;99.90
9668;DHT22;4872;48.316;10.650;2022-09-03T19:18:46;17.00;99.90
9668;DHT22;4872;48.316;10.650;2022-09-03T19:21:35;17.00;99.90
9668;DHT22;4872;48.316;10.650;2022-09-03T19:24:25;16.90;99.90
9668;DHT22;4872;48.316;10.650;2022-09-03T19:27:17;16.80;99.90
9668;DHT22;4872;48.316;10.650;2022-09-03T19:30:07;16.80;99.90
9668;DHT22;4872;48.316;10.650;2022-09-03T19:33:01;16.80;99.90
9668;DHT22;4872;48.316;10.650;2022-09-03T19:35:59;16.80;99.90
9668;DHT22;4872;48.316;10.650;2022-09-03T19:38:55;16.80;99.90
9668;DHT22;4872;48.316;10.650;2022-09-03T19:41:47;16.80;99.90
9668;DHT22;4872;48.316;10.650;2022-09-03T19:44:45;16.80;99.90
9668;DHT22;4872;48.316;10.650;2022-09-03T19:47:50;16.80;99.90
9668;DHT22;4872;48.316;10.650;2022-09-03T19:50:42;16.90;99.90
9668;DHT22;4872;48.316;10.650;2022-09-03T19:53:31;16.80;99.90
9668;DHT22;4872;48.316;10.650;2022-09-03T19:56:22;16.70;99.90
9668;DHT22;4872;48.316;10.650;2022-09-03T19:59:12;16.70;99.90
9668;DHT22;4872;48.316;10.650;2022-09-03T20:01:58;16.60;99.90
9668;DHT22;4872;48.316;10.650;2022-09-03T20:04:46;16.60;99.90
9668;DHT22;4872;48.316;10.650;2022-09-03T20:07:33;16.50;99.90
9668;DHT22;4872;48.316;10.650;2022-09-03T20:10:20;16.50;99.90
9668;DHT22;4872;48.316;10.650;2022-09-03T20:12:54;16.40;99.90
9668;DHT22;4872;48.316;10.650;2022-09-03T20:15:30;16.40;99.90
9668;DHT22;4872;48.316;10.650;2022-09-03T20:18:18;16.30;99.90
9668;DHT22;4872;48.316;10.650;2022-09-03T20:20:55;16.30;99.90
9668;DHT22;4872;48.316;10.650;2022-09-03T20:23:31;16.30;99.90
9668;DHT22;4872;48.316;10.650;2022-09-03T20:26:23;16.30;99.90
9668;DHT22;4872;48.316;10.650;2022-09-03T20:29:06;16.20;99.90
9668;DHT22;4872;48.316;10.650;2022-09-03T20:31:43;16.20;99.90
9668;DHT22;4872;48.316;10.650;2022-09-03T20:34:23;16.20;99.90
9668;DHT22;4872;48.316;10.650;2022-09-03T20:36:55;16.20;99.90
9668;DHT22;4872;48.316;10.650;2022-09-03T20:39:41;16.20;99.90
9668;DHT22;4872;48.316;10.650;2022-09-03T20:42:30;16.20;99.90
9668;DHT22;4872;48.316;10.650;2022-09-03T20:45:04;16.20;99.90
9668;DHT22;4872;48.316;10.650;2022-09-03T20:47:59;16.10;99.90
9668;DHT22;4872;48.316;10.650;2022-09-03T20:50:39;16.10;99.90
9668;DHT22;4872;48.316;10.650;2022-09-03T20:56:14;16.10;99.90
9668;DHT22;4872;48.316;10.650;2022-09-03T20:58:51;16.00;99.90
9668;DHT22;4872;48.316;10.650;2022-09-03T21:01:28;15.90;99.90
9668;DHT22;4872;48.316;10.650;2022-09-03T21:04:02;15.90;99.90
9668;DHT22;4872;48.316;10.650;2022-09-03T21:06:37;15.80;99.90